JBU1650 KSAN-KSMF
Flight info
| Callsign | JBU1650 |
|---|---|
| Flight time | 1h 19m |
| Altitude | 38000 |
| Route | PADRZ2 EHF NURAY SUUTR4 |
| Aircraft | A320/M-SDE3FGHIRWY/LB1 |
Departure
| Time | 2026-05-07 21:00 |
|---|---|
| Airport | San Diego International Airport (KSAN) |
Arrival
| Time | 2026-05-07 22:19 |
|---|---|
| Airport | Sacramento International Airport (KSMF) |
| Time | Latitude | Longitude | Altitude | Speed | Heading |
|---|---|---|---|---|---|
| 2026-05-07 20:31 | 32.73337 | -117.19773 | 27 ft | 0 kts | 281° |
| 2026-05-07 20:49 | 32.73337 | -117.19768 | 23 ft | 1 kts | 281° |
| 2026-05-07 20:49 | 32.73331 | -117.19741 | 26 ft | 4 kts | 297° |
| 2026-05-07 20:49 | 32.73319 | -117.19727 | 24 ft | 3 kts | 15° |
| 2026-05-07 20:49 | 32.73332 | -117.19724 | 23 ft | 0 kts | 13° |
| 2026-05-07 20:53 | 32.73338 | -117.19722 | 25 ft | 2 kts | 13° |
| 2026-05-07 20:53 | 32.73362 | -117.19715 | 23 ft | 5 kts | 18° |
| 2026-05-07 20:53 | 32.73402 | -117.19697 | 24 ft | 7 kts | 27° |
| 2026-05-07 20:53 | 32.73414 | -117.19637 | 23 ft | 9 kts | 102° |
| 2026-05-07 20:54 | 32.73394 | -117.19556 | 23 ft | 11 kts | 105° |
| 2026-05-07 20:54 | 32.73372 | -117.19457 | 25 ft | 14 kts | 105° |
| 2026-05-07 20:54 | 32.73345 | -117.19336 | 25 ft | 16 kts | 105° |
| 2026-05-07 20:54 | 32.73309 | -117.19198 | 23 ft | 19 kts | 107° |
| 2026-05-07 20:55 | 32.73268 | -117.19040 | 23 ft | 21 kts | 105° |
| 2026-05-07 20:55 | 32.73228 | -117.18865 | 24 ft | 23 kts | 105° |
| 2026-05-07 20:55 | 32.73182 | -117.18671 | 27 ft | 26 kts | 106° |
| 2026-05-07 20:55 | 32.73129 | -117.18459 | 26 ft | 27 kts | 105° |
| 2026-05-07 20:56 | 32.73081 | -117.18259 | 26 ft | 26 kts | 106° |
| 2026-05-07 20:56 | 32.73027 | -117.18042 | 27 ft | 29 kts | 107° |
| 2026-05-07 20:56 | 32.72972 | -117.17813 | 25 ft | 26 kts | 108° |
| 2026-05-07 20:56 | 32.72952 | -117.17690 | 25 ft | 2 kts | 78° |
| 2026-05-07 20:57 | 32.72958 | -117.17663 | 27 ft | 6 kts | 73° |
| 2026-05-07 20:57 | 32.72985 | -117.17602 | 25 ft | 12 kts | 53° |
| 2026-05-07 20:57 | 32.73035 | -117.17637 | 27 ft | 0 kts | 283° |
| 2026-05-07 20:59 | 32.73043 | -117.17674 | 25 ft | 30 kts | 286° |
| 2026-05-07 20:59 | 32.73188 | -117.18278 | 26 ft | 120 kts | 286° |
| 2026-05-07 20:59 | 32.73479 | -117.19467 | 216 ft | 170 kts | 286° |
| 2026-05-07 21:00 | 32.73878 | -117.20850 | 1085 ft | 179 kts | 296° |
| 2026-05-07 21:00 | 32.74574 | -117.22074 | 2171 ft | 178 kts | 306° |
| 2026-05-07 21:00 | 32.75282 | -117.23227 | 2966 ft | 172 kts | 305° |
| 2026-05-07 21:00 | 32.75952 | -117.24458 | 3400 ft | 187 kts | 303° |
| 2026-05-07 21:01 | 32.76692 | -117.25842 | 3740 ft | 210 kts | 303° |
| 2026-05-07 21:01 | 32.77526 | -117.27386 | 4130 ft | 234 kts | 303° |
| 2026-05-07 21:01 | 32.78452 | -117.29090 | 4575 ft | 257 kts | 304° |
| 2026-05-07 21:01 | 32.79441 | -117.30910 | 5310 ft | 266 kts | 304° |
| 2026-05-07 21:02 | 32.80472 | -117.32721 | 6142 ft | 270 kts | 307° |
| 2026-05-07 21:02 | 32.81606 | -117.34528 | 6987 ft | 275 kts | 309° |
| 2026-05-07 21:02 | 32.82788 | -117.36341 | 7816 ft | 280 kts | 309° |
| 2026-05-07 21:02 | 32.84000 | -117.38178 | 8638 ft | 285 kts | 309° |
| 2026-05-07 21:03 | 32.85233 | -117.40048 | 9481 ft | 290 kts | 310° |
| 2026-05-07 21:03 | 32.86482 | -117.41959 | 10217 ft | 298 kts | 309° |
| 2026-05-07 21:03 | 32.87802 | -117.43987 | 10502 ft | 321 kts | 309° |
| 2026-05-07 21:03 | 32.89196 | -117.46144 | 10984 ft | 334 kts | 309° |
| 2026-05-07 21:04 | 32.90620 | -117.48359 | 11672 ft | 339 kts | 309° |
| 2026-05-07 21:04 | 32.92064 | -117.50607 | 12383 ft | 344 kts | 309° |
| 2026-05-07 21:04 | 32.93506 | -117.52853 | 13086 ft | 348 kts | 309° |
| 2026-05-07 21:04 | 32.94986 | -117.55159 | 13809 ft | 352 kts | 310° |
| 2026-05-07 21:05 | 32.96483 | -117.57491 | 14445 ft | 356 kts | 310° |
| 2026-05-07 21:05 | 32.97991 | -117.59844 | 15083 ft | 359 kts | 310° |
| 2026-05-07 21:05 | 32.99513 | -117.62221 | 15710 ft | 362 kts | 310° |
| 2026-05-07 21:05 | 33.01044 | -117.64611 | 16336 ft | 365 kts | 310° |
| 2026-05-07 21:06 | 33.02589 | -117.67024 | 16964 ft | 368 kts | 310° |
| 2026-05-07 21:06 | 33.04147 | -117.69462 | 17598 ft | 371 kts | 310° |
| 2026-05-07 21:06 | 33.05722 | -117.71915 | 18235 ft | 374 kts | 312° |
| 2026-05-07 21:06 | 33.07531 | -117.74132 | 18785 ft | 373 kts | 322° |
| 2026-05-07 21:07 | 33.09490 | -117.76120 | 19326 ft | 376 kts | 322° |
| 2026-05-07 21:07 | 33.11490 | -117.78145 | 19910 ft | 378 kts | 322° |
| 2026-05-07 21:07 | 33.13504 | -117.80187 | 20485 ft | 381 kts | 322° |
| 2026-05-07 21:07 | 33.15527 | -117.82244 | 21042 ft | 384 kts | 322° |
| 2026-05-07 21:08 | 33.17565 | -117.84319 | 21581 ft | 386 kts | 322° |
| 2026-05-07 21:08 | 33.19616 | -117.86410 | 22093 ft | 389 kts | 322° |
| 2026-05-07 21:08 | 33.21696 | -117.88491 | 22598 ft | 392 kts | 323° |
| 2026-05-07 21:08 | 33.23810 | -117.90560 | 23116 ft | 394 kts | 323° |
| 2026-05-07 21:09 | 33.25947 | -117.92628 | 23622 ft | 397 kts | 323° |
| 2026-05-07 21:09 | 33.28074 | -117.94678 | 24042 ft | 399 kts | 323° |
| 2026-05-07 21:09 | 33.30238 | -117.96775 | 24464 ft | 402 kts | 323° |
| 2026-05-07 21:09 | 33.32412 | -117.98893 | 24887 ft | 404 kts | 323° |
| 2026-05-07 21:10 | 33.34598 | -118.01028 | 25307 ft | 407 kts | 323° |
| 2026-05-07 21:10 | 33.36790 | -118.03175 | 25727 ft | 409 kts | 323° |
| 2026-05-07 21:10 | 33.38997 | -118.05339 | 26123 ft | 411 kts | 323° |
| 2026-05-07 21:10 | 33.41218 | -118.07517 | 26525 ft | 414 kts | 323° |
| 2026-05-07 21:11 | 33.43452 | -118.09707 | 26930 ft | 417 kts | 323° |
| 2026-05-07 21:11 | 33.45702 | -118.11912 | 27332 ft | 419 kts | 323° |
| 2026-05-07 21:11 | 33.50206 | -118.16334 | 28126 ft | 424 kts | 323° |
| 2026-05-07 21:12 | 33.52489 | -118.18577 | 28518 ft | 426 kts | 323° |
| 2026-05-07 21:12 | 33.54786 | -118.20838 | 28909 ft | 428 kts | 323° |
| 2026-05-07 21:12 | 33.57141 | -118.23035 | 29291 ft | 429 kts | 328° |
| 2026-05-07 21:12 | 33.59739 | -118.24802 | 29645 ft | 430 kts | 337° |
| 2026-05-07 21:13 | 33.62469 | -118.26298 | 30022 ft | 433 kts | 337° |
| 2026-05-07 21:13 | 33.65215 | -118.27803 | 30367 ft | 435 kts | 337° |
| 2026-05-07 21:13 | 33.67975 | -118.29318 | 30690 ft | 437 kts | 337° |
| 2026-05-07 21:13 | 33.70710 | -118.30824 | 31003 ft | 440 kts | 337° |
| 2026-05-07 21:14 | 33.73495 | -118.32363 | 31331 ft | 442 kts | 337° |
| 2026-05-07 21:14 | 33.76295 | -118.33912 | 31655 ft | 444 kts | 338° |
| 2026-05-07 21:14 | 33.79118 | -118.35415 | 32085 ft | 443 kts | 339° |
| 2026-05-07 21:14 | 33.81952 | -118.36857 | 32571 ft | 441 kts | 339° |
| 2026-05-07 21:15 | 33.84791 | -118.38264 | 32982 ft | 442 kts | 340° |
| 2026-05-07 21:15 | 33.87631 | -118.39661 | 33431 ft | 441 kts | 340° |
| 2026-05-07 21:15 | 33.89513 | -118.40589 | 33747 ft | 441 kts | 340° |
| 2026-05-07 21:15 | 33.92341 | -118.41995 | 34191 ft | 440 kts | 340° |
| 2026-05-07 21:16 | 33.95161 | -118.43411 | 34623 ft | 438 kts | 339° |
| 2026-05-07 21:16 | 33.97959 | -118.44825 | 35076 ft | 435 kts | 340° |
| 2026-05-07 21:16 | 34.00815 | -118.45957 | 35523 ft | 430 kts | 348° |
| 2026-05-07 21:16 | 34.03748 | -118.46537 | 35948 ft | 426 kts | 354° |
| 2026-05-07 21:17 | 34.06682 | -118.46980 | 36365 ft | 424 kts | 354° |
| 2026-05-07 21:17 | 34.09596 | -118.47420 | 36769 ft | 421 kts | 353° |
| 2026-05-07 21:17 | 34.12496 | -118.47858 | 37134 ft | 419 kts | 353° |
| 2026-05-07 21:17 | 34.15381 | -118.48299 | 37526 ft | 417 kts | 353° |
| 2026-05-07 21:18 | 34.18214 | -118.48737 | 37905 ft | 415 kts | 353° |
| 2026-05-07 21:18 | 34.21077 | -118.49179 | 38008 ft | 414 kts | 353° |
| 2026-05-07 21:18 | 34.26789 | -118.50065 | 38026 ft | 413 kts | 353° |
| 2026-05-07 21:19 | 34.32490 | -118.50946 | 38062 ft | 413 kts | 353° |
| 2026-05-07 21:19 | 34.38145 | -118.51817 | 38050 ft | 413 kts | 353° |
| 2026-05-07 21:20 | 34.43893 | -118.52697 | 38046 ft | 414 kts | 353° |
| 2026-05-07 21:20 | 34.49583 | -118.53572 | 38025 ft | 415 kts | 353° |
| 2026-05-07 21:21 | 34.55317 | -118.54466 | 38032 ft | 416 kts | 353° |
| 2026-05-07 21:21 | 34.61063 | -118.55364 | 38044 ft | 416 kts | 353° |
| 2026-05-07 21:22 | 34.66811 | -118.56264 | 38058 ft | 417 kts | 353° |
| 2026-05-07 21:22 | 34.72571 | -118.57160 | 38043 ft | 418 kts | 353° |
| 2026-05-07 21:23 | 34.78345 | -118.58057 | 38055 ft | 419 kts | 353° |
| 2026-05-07 21:23 | 34.84093 | -118.58955 | 38091 ft | 419 kts | 353° |
| 2026-05-07 21:24 | 34.89889 | -118.59857 | 38122 ft | 420 kts | 353° |
| 2026-05-07 21:24 | 34.95685 | -118.60763 | 38154 ft | 420 kts | 353° |
| 2026-05-07 21:25 | 35.01315 | -118.62575 | 38166 ft | 421 kts | 335° |
| 2026-05-07 21:25 | 35.06156 | -118.66602 | 38153 ft | 423 kts | 321° |
| 2026-05-07 21:26 | 35.10650 | -118.71178 | 38146 ft | 424 kts | 321° |
| 2026-05-07 21:26 | 35.15192 | -118.75780 | 38134 ft | 424 kts | 322° |
| 2026-05-07 21:27 | 35.19738 | -118.80386 | 38094 ft | 425 kts | 321° |
| 2026-05-07 21:27 | 35.24284 | -118.85001 | 38092 ft | 425 kts | 321° |
| 2026-05-07 21:28 | 35.28829 | -118.89633 | 38086 ft | 426 kts | 321° |
| 2026-05-07 21:28 | 35.33347 | -118.94248 | 38084 ft | 426 kts | 321° |
| 2026-05-07 21:29 | 35.37896 | -118.98906 | 38092 ft | 426 kts | 321° |
| 2026-05-07 21:29 | 35.42440 | -119.03560 | 38096 ft | 425 kts | 321° |
| 2026-05-07 21:30 | 35.46991 | -119.08202 | 38077 ft | 425 kts | 324° |
| 2026-05-07 21:30 | 35.52132 | -119.11694 | 38080 ft | 423 kts | 337° |
| 2026-05-07 21:31 | 35.57499 | -119.14563 | 38082 ft | 424 kts | 337° |
| 2026-05-07 21:31 | 35.62907 | -119.17470 | 38077 ft | 425 kts | 336° |
| 2026-05-07 21:32 | 35.68321 | -119.20400 | 38073 ft | 426 kts | 336° |
| 2026-05-07 21:32 | 35.73753 | -119.23329 | 38075 ft | 427 kts | 337° |
| 2026-05-07 21:33 | 35.79143 | -119.26239 | 38062 ft | 424 kts | 336° |
| 2026-05-07 21:33 | 35.84550 | -119.29158 | 38064 ft | 425 kts | 336° |
| 2026-05-07 21:34 | 35.89972 | -119.32084 | 38075 ft | 426 kts | 336° |
| 2026-05-07 21:34 | 35.95401 | -119.35019 | 38078 ft | 426 kts | 336° |
| 2026-05-07 21:35 | 36.00825 | -119.37966 | 38071 ft | 426 kts | 336° |
| 2026-05-07 21:35 | 36.06257 | -119.40918 | 38075 ft | 427 kts | 336° |
| 2026-05-07 21:36 | 36.11672 | -119.43865 | 38085 ft | 428 kts | 336° |
| 2026-05-07 21:36 | 36.17132 | -119.46845 | 38093 ft | 429 kts | 336° |
| 2026-05-07 21:37 | 36.22600 | -119.49826 | 38100 ft | 430 kts | 336° |
| 2026-05-07 21:37 | 36.28071 | -119.52815 | 38102 ft | 430 kts | 336° |
| 2026-05-07 21:38 | 36.33505 | -119.55795 | 38100 ft | 430 kts | 336° |
| 2026-05-07 21:38 | 36.38973 | -119.58793 | 38104 ft | 430 kts | 336° |
| 2026-05-07 21:39 | 36.44443 | -119.61796 | 38105 ft | 430 kts | 336° |
| 2026-05-07 21:39 | 36.49909 | -119.64807 | 38102 ft | 430 kts | 336° |
| 2026-05-07 21:40 | 36.55341 | -119.67807 | 38096 ft | 430 kts | 336° |
| 2026-05-07 21:40 | 36.60723 | -119.71032 | 38096 ft | 430 kts | 328° |
| 2026-05-07 21:41 | 36.65786 | -119.75014 | 38099 ft | 431 kts | 327° |
| 2026-05-07 21:41 | 36.70845 | -119.79021 | 38101 ft | 431 kts | 327° |
| 2026-05-07 21:42 | 36.75875 | -119.83001 | 37872 ft | 432 kts | 327° |
| 2026-05-07 21:42 | 36.78411 | -119.85005 | 37092 ft | 428 kts | 328° |
| 2026-05-07 21:42 | 36.80888 | -119.86963 | 36673 ft | 415 kts | 328° |
| 2026-05-07 21:43 | 36.83289 | -119.88860 | 36155 ft | 405 kts | 328° |
| 2026-05-07 21:43 | 36.85655 | -119.90734 | 35473 ft | 400 kts | 328° |
| 2026-05-07 21:43 | 36.87997 | -119.92593 | 34764 ft | 397 kts | 328° |
| 2026-05-07 21:43 | 36.90319 | -119.94438 | 34099 ft | 394 kts | 328° |
| 2026-05-07 21:44 | 36.92620 | -119.96272 | 33386 ft | 390 kts | 328° |
| 2026-05-07 21:44 | 36.94884 | -119.98078 | 32990 ft | 378 kts | 328° |
| 2026-05-07 21:44 | 36.99286 | -120.01586 | 32828 ft | 380 kts | 328° |
| 2026-05-07 21:45 | 37.03744 | -120.05138 | 32460 ft | 380 kts | 328° |
| 2026-05-07 21:45 | 37.05960 | -120.06906 | 32041 ft | 376 kts | 328° |
| 2026-05-07 21:45 | 37.08168 | -120.08670 | 31629 ft | 376 kts | 328° |
| 2026-05-07 21:46 | 37.10364 | -120.10424 | 31221 ft | 373 kts | 328° |
| 2026-05-07 21:46 | 37.12544 | -120.12163 | 30815 ft | 370 kts | 328° |
| 2026-05-07 21:46 | 37.14708 | -120.13892 | 30431 ft | 367 kts | 328° |
| 2026-05-07 21:46 | 37.16821 | -120.15584 | 30028 ft | 364 kts | 328° |
| 2026-05-07 21:47 | 37.18942 | -120.17284 | 29636 ft | 361 kts | 328° |
| 2026-05-07 21:47 | 37.21049 | -120.18973 | 29262 ft | 358 kts | 328° |
| 2026-05-07 21:47 | 37.23148 | -120.20657 | 28896 ft | 357 kts | 328° |
| 2026-05-07 21:47 | 37.25235 | -120.22334 | 28540 ft | 355 kts | 327° |
| 2026-05-07 21:48 | 37.27301 | -120.23996 | 28177 ft | 351 kts | 328° |
| 2026-05-07 21:48 | 37.29399 | -120.25677 | 28055 ft | 365 kts | 328° |
| 2026-05-07 21:48 | 37.33815 | -120.29126 | 28076 ft | 378 kts | 328° |
| 2026-05-07 21:49 | 37.38273 | -120.32578 | 28076 ft | 379 kts | 329° |
| 2026-05-07 21:49 | 37.42760 | -120.36061 | 28089 ft | 380 kts | 328° |
| 2026-05-07 21:50 | 37.45014 | -120.37820 | 27484 ft | 383 kts | 328° |
| 2026-05-07 21:50 | 37.47269 | -120.39665 | 26363 ft | 389 kts | 322° |
| 2026-05-07 21:50 | 37.49358 | -120.41785 | 25768 ft | 381 kts | 321° |
| 2026-05-07 21:50 | 37.51401 | -120.43849 | 25175 ft | 373 kts | 321° |
| 2026-05-07 21:51 | 37.53395 | -120.45846 | 24513 ft | 369 kts | 322° |
| 2026-05-07 21:51 | 37.55398 | -120.47843 | 23834 ft | 366 kts | 322° |
| 2026-05-07 21:51 | 37.57386 | -120.49824 | 23062 ft | 363 kts | 322° |
| 2026-05-07 21:51 | 37.59351 | -120.51790 | 22326 ft | 358 kts | 322° |
| 2026-05-07 21:52 | 37.61289 | -120.53732 | 21628 ft | 353 kts | 321° |
| 2026-05-07 21:52 | 37.63192 | -120.55639 | 21193 ft | 343 kts | 322° |
| 2026-05-07 21:52 | 37.65062 | -120.57509 | 21077 ft | 343 kts | 322° |
| 2026-05-07 21:52 | 37.66933 | -120.59377 | 21094 ft | 344 kts | 322° |
| 2026-05-07 21:53 | 37.68814 | -120.61265 | 20745 ft | 346 kts | 321° |
| 2026-05-07 21:53 | 37.70664 | -120.63145 | 20282 ft | 345 kts | 321° |
| 2026-05-07 21:53 | 37.72522 | -120.65017 | 19735 ft | 340 kts | 321° |
| 2026-05-07 21:53 | 37.74364 | -120.66863 | 19122 ft | 336 kts | 322° |
| 2026-05-07 21:54 | 37.76180 | -120.68678 | 18696 ft | 329 kts | 321° |
| 2026-05-07 21:54 | 37.77967 | -120.70469 | 18411 ft | 327 kts | 321° |
| 2026-05-07 21:54 | 37.79744 | -120.72254 | 18097 ft | 325 kts | 321° |
| 2026-05-07 21:54 | 37.81509 | -120.74033 | 17795 ft | 324 kts | 321° |
| 2026-05-07 21:55 | 37.83269 | -120.75810 | 17418 ft | 323 kts | 321° |
| 2026-05-07 21:55 | 37.85016 | -120.77576 | 17123 ft | 320 kts | 321° |
| 2026-05-07 21:55 | 37.86751 | -120.79329 | 16799 ft | 319 kts | 321° |
| 2026-05-07 21:55 | 37.88460 | -120.81059 | 16445 ft | 318 kts | 321° |
| 2026-05-07 21:56 | 37.90180 | -120.82805 | 16087 ft | 316 kts | 320° |
| 2026-05-07 21:56 | 37.91890 | -120.84544 | 15744 ft | 315 kts | 320° |
| 2026-05-07 21:56 | 37.93596 | -120.86279 | 15395 ft | 313 kts | 320° |
| 2026-05-07 21:56 | 37.95290 | -120.88005 | 15049 ft | 312 kts | 320° |
| 2026-05-07 21:57 | 37.96978 | -120.89727 | 14716 ft | 311 kts | 320° |
| 2026-05-07 21:57 | 37.98660 | -120.91441 | 14366 ft | 310 kts | 320° |
| 2026-05-07 21:57 | 38.00337 | -120.93149 | 14021 ft | 309 kts | 320° |
| 2026-05-07 21:57 | 38.02012 | -120.94854 | 13643 ft | 308 kts | 320° |
| 2026-05-07 21:58 | 38.03674 | -120.96555 | 13294 ft | 306 kts | 320° |
| 2026-05-07 21:58 | 38.05301 | -120.98221 | 12961 ft | 304 kts | 319° |
| 2026-05-07 21:58 | 38.06938 | -120.99904 | 12622 ft | 302 kts | 317° |
| 2026-05-07 21:58 | 38.08391 | -121.01799 | 12286 ft | 299 kts | 309° |
| 2026-05-07 21:59 | 38.09740 | -121.03797 | 12035 ft | 296 kts | 309° |
| 2026-05-07 21:59 | 38.11084 | -121.05777 | 12008 ft | 297 kts | 309° |
| 2026-05-07 21:59 | 38.12434 | -121.07769 | 12003 ft | 298 kts | 309° |
| 2026-05-07 21:59 | 38.13785 | -121.09760 | 12005 ft | 298 kts | 309° |
| 2026-05-07 22:00 | 38.15137 | -121.11757 | 12006 ft | 298 kts | 309° |
| 2026-05-07 22:00 | 38.16469 | -121.13728 | 12007 ft | 298 kts | 309° |
| 2026-05-07 22:00 | 38.17821 | -121.15723 | 12007 ft | 297 kts | 309° |
| 2026-05-07 22:00 | 38.19167 | -121.17714 | 12007 ft | 297 kts | 309° |
| 2026-05-07 22:01 | 38.20512 | -121.19701 | 12010 ft | 297 kts | 309° |
| 2026-05-07 22:01 | 38.21864 | -121.21680 | 12005 ft | 296 kts | 310° |
| 2026-05-07 22:01 | 38.23282 | -121.23588 | 11653 ft | 298 kts | 313° |
| 2026-05-07 22:01 | 38.24753 | -121.25446 | 11261 ft | 298 kts | 314° |
| 2026-05-07 22:02 | 38.26240 | -121.27278 | 10912 ft | 297 kts | 314° |
| 2026-05-07 22:02 | 38.27702 | -121.29076 | 10567 ft | 296 kts | 314° |
| 2026-05-07 22:02 | 38.29172 | -121.30901 | 10241 ft | 294 kts | 313° |
| 2026-05-07 22:02 | 38.30628 | -121.32727 | 9903 ft | 293 kts | 313° |
| 2026-05-07 22:03 | 38.32073 | -121.34548 | 9536 ft | 292 kts | 313° |
| 2026-05-07 22:03 | 38.33509 | -121.36367 | 9181 ft | 290 kts | 313° |
| 2026-05-07 22:03 | 38.34927 | -121.38165 | 8987 ft | 284 kts | 313° |
| 2026-05-07 22:03 | 38.36325 | -121.39945 | 8993 ft | 284 kts | 313° |
| 2026-05-07 22:04 | 38.37726 | -121.41729 | 8996 ft | 285 kts | 313° |
| 2026-05-07 22:04 | 38.39108 | -121.43487 | 8993 ft | 285 kts | 313° |
| 2026-05-07 22:04 | 38.40510 | -121.45270 | 8992 ft | 285 kts | 313° |
| 2026-05-07 22:04 | 38.41910 | -121.47052 | 8991 ft | 285 kts | 313° |
| 2026-05-07 22:05 | 38.43309 | -121.48837 | 8991 ft | 285 kts | 313° |
| 2026-05-07 22:05 | 38.44709 | -121.50623 | 8991 ft | 285 kts | 313° |
| 2026-05-07 22:05 | 38.46112 | -121.52410 | 8990 ft | 285 kts | 312° |
| 2026-05-07 22:05 | 38.47525 | -121.54181 | 8990 ft | 286 kts | 316° |
| 2026-05-07 22:06 | 38.49088 | -121.55762 | 8994 ft | 287 kts | 320° |
| 2026-05-07 22:06 | 38.50658 | -121.57332 | 8990 ft | 287 kts | 319° |
| 2026-05-07 22:06 | 38.52214 | -121.58897 | 8840 ft | 282 kts | 319° |
| 2026-05-07 22:06 | 38.53693 | -121.60391 | 8713 ft | 267 kts | 319° |
| 2026-05-07 22:07 | 38.55123 | -121.61832 | 8439 ft | 260 kts | 319° |
| 2026-05-07 22:07 | 38.56546 | -121.63266 | 7988 ft | 261 kts | 319° |
| 2026-05-07 22:07 | 38.58017 | -121.64625 | 7562 ft | 262 kts | 328° |
| 2026-05-07 22:07 | 38.59699 | -121.65537 | 7135 ft | 264 kts | 341° |
| 2026-05-07 22:08 | 38.61459 | -121.66205 | 6706 ft | 264 kts | 341° |
| 2026-05-07 22:08 | 38.63216 | -121.66874 | 6265 ft | 263 kts | 341° |
| 2026-05-07 22:08 | 38.64967 | -121.67543 | 5823 ft | 262 kts | 341° |
| 2026-05-07 22:08 | 38.66681 | -121.68204 | 5390 ft | 258 kts | 341° |
| 2026-05-07 22:09 | 38.68378 | -121.68860 | 5037 ft | 249 kts | 341° |
| 2026-05-07 22:09 | 38.69984 | -121.69481 | 4988 ft | 237 kts | 340° |
| 2026-05-07 22:09 | 38.71574 | -121.70033 | 4988 ft | 239 kts | 351° |
| 2026-05-07 22:09 | 38.73233 | -121.69841 | 4938 ft | 243 kts | 8° |
| 2026-05-07 22:10 | 38.74952 | -121.69612 | 4354 ft | 255 kts | 0° |
| 2026-05-07 22:10 | 38.76734 | -121.69580 | 4006 ft | 254 kts | 358° |
| 2026-05-07 22:10 | 38.78488 | -121.69606 | 3725 ft | 251 kts | 358° |
| 2026-05-07 22:10 | 38.80230 | -121.69632 | 3380 ft | 250 kts | 359° |
| 2026-05-07 22:11 | 38.81943 | -121.69641 | 3089 ft | 249 kts | 359° |
| 2026-05-07 22:11 | 38.83647 | -121.69633 | 2985 ft | 240 kts | 360° |
| 2026-05-07 22:11 | 38.85296 | -121.69614 | 2998 ft | 236 kts | 0° |
| 2026-05-07 22:11 | 38.86941 | -121.69586 | 2996 ft | 236 kts | 360° |
| 2026-05-07 22:12 | 38.88581 | -121.69555 | 2999 ft | 235 kts | 0° |
| 2026-05-07 22:12 | 38.90176 | -121.69485 | 2989 ft | 222 kts | 8° |
| 2026-05-07 22:12 | 38.91558 | -121.68838 | 3011 ft | 203 kts | 33° |
| 2026-05-07 22:12 | 38.92513 | -121.67637 | 2995 ft | 184 kts | 58° |
| 2026-05-07 22:13 | 38.92986 | -121.66216 | 2990 ft | 165 kts | 81° |
| 2026-05-07 22:13 | 38.93035 | -121.64813 | 2988 ft | 156 kts | 101° |
| 2026-05-07 22:13 | 38.92729 | -121.63500 | 2990 ft | 153 kts | 120° |
| 2026-05-07 22:13 | 38.92125 | -121.62399 | 2998 ft | 149 kts | 139° |
| 2026-05-07 22:14 | 38.91301 | -121.61617 | 2991 ft | 147 kts | 155° |
| 2026-05-07 22:14 | 38.90330 | -121.61197 | 2995 ft | 148 kts | 172° |
| 2026-05-07 22:14 | 38.89315 | -121.61016 | 2997 ft | 148 kts | 173° |
| 2026-05-07 22:14 | 38.88302 | -121.60835 | 3004 ft | 147 kts | 174° |
| 2026-05-07 22:15 | 38.87290 | -121.60653 | 3006 ft | 151 kts | 174° |
| 2026-05-07 22:15 | 38.86171 | -121.60453 | 3009 ft | 174 kts | 174° |
| 2026-05-07 22:15 | 38.84943 | -121.60235 | 2780 ft | 180 kts | 173° |
| 2026-05-07 22:15 | 38.83708 | -121.60038 | 2560 ft | 172 kts | 175° |
| 2026-05-07 22:16 | 38.82599 | -121.59968 | 2329 ft | 149 kts | 179° |
| 2026-05-07 22:16 | 38.81603 | -121.59954 | 2128 ft | 140 kts | 180° |
| 2026-05-07 22:16 | 38.80646 | -121.59956 | 1959 ft | 135 kts | 181° |
| 2026-05-07 22:16 | 38.79710 | -121.59965 | 1775 ft | 134 kts | 181° |
| 2026-05-07 22:17 | 38.78768 | -121.59978 | 1600 ft | 136 kts | 182° |
| 2026-05-07 22:17 | 38.77837 | -121.59992 | 1423 ft | 135 kts | 181° |
| 2026-05-07 22:17 | 38.76893 | -121.60006 | 1254 ft | 134 kts | 182° |
| 2026-05-07 22:17 | 38.75957 | -121.60022 | 1072 ft | 135 kts | 181° |
| 2026-05-07 22:18 | 38.75028 | -121.60037 | 893 ft | 135 kts | 182° |
| 2026-05-07 22:18 | 38.73147 | -121.60068 | 554 ft | 136 kts | 181° |
| 2026-05-07 22:18 | 38.72196 | -121.60085 | 364 ft | 137 kts | 181° |
| 2026-05-07 22:19 | 38.71240 | -121.60103 | 183 ft | 138 kts | 181° |
| 2026-05-07 22:19 | 38.70285 | -121.60116 | 48 ft | 135 kts | 180° |
| 2026-05-07 22:19 | 38.69466 | -121.60133 | 27 ft | 98 kts | 181° |
| 2026-05-07 22:19 | 38.69066 | -121.60130 | 31 ft | 11 kts | 139° |
| 2026-05-07 22:20 | 38.69058 | -121.60003 | 29 ft | 17 kts | 91° |
| 2026-05-07 22:20 | 38.69096 | -121.59877 | 29 ft | 14 kts | 22° |
| 2026-05-07 22:20 | 38.69198 | -121.59872 | 29 ft | 16 kts | 1° |
| 2026-05-07 22:20 | 38.69324 | -121.59867 | 29 ft | 20 kts | 2° |
| 2026-05-07 22:21 | 38.69455 | -121.59844 | 29 ft | 17 kts | 48° |
| 2026-05-07 22:21 | 38.69464 | -121.59682 | 29 ft | 20 kts | 91° |
| 2026-05-07 22:21 | 38.69455 | -121.59500 | 29 ft | 18 kts | 96° |
| 2026-05-07 22:21 | 38.69453 | -121.59479 | 29 ft | 0 kts | 94° |
| 2026-05-07 22:22 | 38.69453 | -121.59471 | 29 ft | 3 kts | 89° |
| 2026-05-07 22:22 | 38.69477 | -121.59422 | 29 ft | 9 kts | 43° |
| 2026-05-07 22:22 | 38.69509 | -121.59400 | 29 ft | 3 kts | 25° |
| 2026-05-07 22:22 | 38.69520 | -121.59393 | 29 ft | 0 kts | 26° |